sensor_id;sensor_type;location;lat;lon;timestamp;P1;durP1;ratioP1;P2;durP2;ratioP2
12367;SDS011;6248;49.812;6.620;2023-01-19T00:01:50;10.77;;;8.83;;
12367;SDS011;6248;49.812;6.620;2023-01-19T00:04:18;13.50;;;9.40;;
12367;SDS011;6248;49.812;6.620;2023-01-19T00:06:45;11.50;;;9.33;;
12367;SDS011;6248;49.812;6.620;2023-01-19T00:09:14;13.30;;;8.87;;
12367;SDS011;6248;49.812;6.620;2023-01-19T00:11:41;12.80;;;9.47;;
12367;SDS011;6248;49.812;6.620;2023-01-19T00:14:10;11.80;;;8.87;;
12367;SDS011;6248;49.812;6.620;2023-01-19T00:16:37;11.60;;;8.90;;
12367;SDS011;6248;49.812;6.620;2023-01-19T00:19:04;13.47;;;9.43;;
12367;SDS011;6248;49.812;6.620;2023-01-19T00:21:32;12.43;;;9.30;;
12367;SDS011;6248;49.812;6.620;2023-01-19T00:23:59;16.53;;;9.70;;
12367;SDS011;6248;49.812;6.620;2023-01-19T00:26:28;16.97;;;9.33;;
12367;SDS011;6248;49.812;6.620;2023-01-19T00:28:57;13.77;;;9.80;;
12367;SDS011;6248;49.812;6.620;2023-01-19T00:31:25;11.67;;;9.30;;
12367;SDS011;6248;49.812;6.620;2023-01-19T00:33:54;13.57;;;9.80;;
12367;SDS011;6248;49.812;6.620;2023-01-19T00:36:21;12.77;;;9.67;;
12367;SDS011;6248;49.812;6.620;2023-01-19T00:38:48;15.90;;;9.53;;
12367;SDS011;6248;49.812;6.620;2023-01-19T00:41:15;12.90;;;9.27;;
12367;SDS011;6248;49.812;6.620;2023-01-19T00:44:06;14.30;;;9.17;;
12367;SDS011;6248;49.812;6.620;2023-01-19T00:46:35;11.57;;;8.70;;
12367;SDS011;6248;49.812;6.620;2023-01-19T00:49:02;13.63;;;9.50;;
12367;SDS011;6248;49.812;6.620;2023-01-19T00:51:30;12.37;;;9.10;;
12367;SDS011;6248;49.812;6.620;2023-01-19T00:53:57;13.27;;;9.63;;
12367;SDS011;6248;49.812;6.620;2023-01-19T00:56:28;10.40;;;8.70;;
12367;SDS011;6248;49.812;6.620;2023-01-19T00:58:56;14.87;;;9.03;;
12367;SDS011;6248;49.812;6.620;2023-01-19T01:01:25;12.00;;;8.40;;
12367;SDS011;6248;49.812;6.620;2023-01-19T01:03:54;11.50;;;8.57;;
12367;SDS011;6248;49.812;6.620;2023-01-19T01:06:21;12.23;;;9.10;;
12367;SDS011;6248;49.812;6.620;2023-01-19T01:08:48;13.77;;;9.03;;
12367;SDS011;6248;49.812;6.620;2023-01-19T01:11:16;12.40;;;8.63;;
12367;SDS011;6248;49.812;6.620;2023-01-19T01:13:43;11.43;;;9.00;;
12367;SDS011;6248;49.812;6.620;2023-01-19T01:16:10;13.13;;;9.20;;
12367;SDS011;6248;49.812;6.620;2023-01-19T01:18:40;11.07;;;8.40;;
12367;SDS011;6248;49.812;6.620;2023-01-19T01:21:08;15.53;;;8.90;;
12367;SDS011;6248;49.812;6.620;2023-01-19T01:23:36;14.20;;;9.27;;
12367;SDS011;6248;49.812;6.620;2023-01-19T01:26:04;16.83;;;9.57;;
12367;SDS011;6248;49.812;6.620;2023-01-19T01:28:31;12.83;;;8.67;;
12367;SDS011;6248;49.812;6.620;2023-01-19T01:31:01;12.17;;;8.67;;
12367;SDS011;6248;49.812;6.620;2023-01-19T01:33:31;12.40;;;8.70;;
12367;SDS011;6248;49.812;6.620;2023-01-19T01:35:58;14.17;;;9.70;;
12367;SDS011;6248;49.812;6.620;2023-01-19T01:38:27;14.40;;;10.00;;
12367;SDS011;6248;49.812;6.620;2023-01-19T01:40:55;13.37;;;9.47;;
12367;SDS011;6248;49.812;6.620;2023-01-19T01:43:39;14.10;;;10.00;;
12367;SDS011;6248;49.812;6.620;2023-01-19T01:46:07;14.47;;;10.40;;
12367;SDS011;6248;49.812;6.620;2023-01-19T01:48:34;11.13;;;9.17;;
12367;SDS011;6248;49.812;6.620;2023-01-19T01:51:05;14.53;;;10.07;;
12367;SDS011;6248;49.812;6.620;2023-01-19T01:53:51;11.00;;;9.07;;
12367;SDS011;6248;49.812;6.620;2023-01-19T01:56:22;11.33;;;9.87;;
12367;SDS011;6248;49.812;6.620;2023-01-19T01:58:51;14.13;;;9.70;;
12367;SDS011;6248;49.812;6.620;2023-01-19T02:01:19;14.20;;;10.20;;
12367;SDS011;6248;49.812;6.620;2023-01-19T02:04:04;14.43;;;10.90;;
12367;SDS011;6248;49.812;6.620;2023-01-19T02:06:31;13.37;;;10.37;;
12367;SDS011;6248;49.812;6.620;2023-01-19T02:09:14;17.67;;;10.67;;
12367;SDS011;6248;49.812;6.620;2023-01-19T02:11:59;14.60;;;9.80;;
12367;SDS011;6248;49.812;6.620;2023-01-19T02:14:44;14.13;;;10.50;;
12367;SDS011;6248;49.812;6.620;2023-01-19T02:17:11;14.77;;;10.23;;
12367;SDS011;6248;49.812;6.620;2023-01-19T02:19:39;18.53;;;11.07;;
12367;SDS011;6248;49.812;6.620;2023-01-19T02:22:08;17.60;;;11.20;;
12367;SDS011;6248;49.812;6.620;2023-01-19T02:24:38;14.87;;;11.00;;
12367;SDS011;6248;49.812;6.620;2023-01-19T02:27:06;20.93;;;11.27;;
12367;SDS011;6248;49.812;6.620;2023-01-19T02:29:33;14.77;;;11.13;;
12367;SDS011;6248;49.812;6.620;2023-01-19T02:32:01;14.93;;;11.00;;
12367;SDS011;6248;49.812;6.620;2023-01-19T02:34:28;17.27;;;11.03;;
12367;SDS011;6248;49.812;6.620;2023-01-19T02:36:56;14.33;;;11.13;;
12367;SDS011;6248;49.812;6.620;2023-01-19T02:39:26;14.03;;;10.47;;
12367;SDS011;6248;49.812;6.620;2023-01-19T02:41:58;16.40;;;11.47;;
12367;SDS011;6248;49.812;6.620;2023-01-19T02:44:29;16.53;;;11.00;;
12367;SDS011;6248;49.812;6.620;2023-01-19T02:46:56;19.03;;;11.60;;
12367;SDS011;6248;49.812;6.620;2023-01-19T02:49:26;19.63;;;11.97;;
12367;SDS011;6248;49.812;6.620;2023-01-19T02:51:54;15.97;;;11.40;;
12367;SDS011;6248;49.812;6.620;2023-01-19T02:54:27;15.70;;;11.60;;
12367;SDS011;6248;49.812;6.620;2023-01-19T02:57:04;19.10;;;11.80;;
12367;SDS011;6248;49.812;6.620;2023-01-19T02:59:39;15.80;;;11.00;;
12367;SDS011;6248;49.812;6.620;2023-01-19T03:02:13;16.90;;;12.57;;
12367;SDS011;6248;49.812;6.620;2023-01-19T03:04:46;20.20;;;12.47;;
12367;SDS011;6248;49.812;6.620;2023-01-19T03:07:18;16.13;;;11.23;;
12367;SDS011;6248;49.812;6.620;2023-01-19T03:09:48;20.37;;;12.53;;
12367;SDS011;6248;49.812;6.620;2023-01-19T03:12:20;15.37;;;11.63;;
12367;SDS011;6248;49.812;6.620;2023-01-19T03:14:49;18.87;;;13.13;;
12367;SDS011;6248;49.812;6.620;2023-01-19T03:17:19;18.63;;;12.57;;
12367;SDS011;6248;49.812;6.620;2023-01-19T03:19:47;18.73;;;12.90;;
12367;SDS011;6248;49.812;6.620;2023-01-19T03:22:16;17.70;;;13.53;;
12367;SDS011;6248;49.812;6.620;2023-01-19T03:24:44;19.63;;;12.47;;
12367;SDS011;6248;49.812;6.620;2023-01-19T03:27:12;20.80;;;12.47;;
12367;SDS011;6248;49.812;6.620;2023-01-19T03:29:43;19.77;;;13.20;;
12367;SDS011;6248;49.812;6.620;2023-01-19T03:32:14;18.90;;;12.67;;
12367;SDS011;6248;49.812;6.620;2023-01-19T03:34:42;17.50;;;12.60;;
12367;SDS011;6248;49.812;6.620;2023-01-19T03:37:10;19.33;;;11.80;;
12367;SDS011;6248;49.812;6.620;2023-01-19T03:39:39;18.83;;;11.77;;
12367;SDS011;6248;49.812;6.620;2023-01-19T03:42:07;21.33;;;12.10;;
12367;SDS011;6248;49.812;6.620;2023-01-19T03:44:35;14.73;;;11.10;;
12367;SDS011;6248;49.812;6.620;2023-01-19T03:47:05;15.63;;;11.93;;
12367;SDS011;6248;49.812;6.620;2023-01-19T03:49:34;16.57;;;10.93;;
12367;SDS011;6248;49.812;6.620;2023-01-19T03:52:02;15.93;;;10.83;;
12367;SDS011;6248;49.812;6.620;2023-01-19T03:54:29;14.17;;;10.67;;
12367;SDS011;6248;49.812;6.620;2023-01-19T03:56:57;12.87;;;10.90;;
12367;SDS011;6248;49.812;6.620;2023-01-19T03:59:24;16.53;;;10.87;;
12367;SDS011;6248;49.812;6.620;2023-01-19T04:01:51;13.77;;;10.33;;
12367;SDS011;6248;49.812;6.620;2023-01-19T04:04:20;12.87;;;10.07;;
12367;SDS011;6248;49.812;6.620;2023-01-19T04:06:50;12.87;;;10.60;;
12367;SDS011;6248;49.812;6.620;2023-01-19T04:09:17;14.10;;;10.97;;
12367;SDS011;6248;49.812;6.620;2023-01-19T04:11:44;14.57;;;10.70;;
12367;SDS011;6248;49.812;6.620;2023-01-19T04:14:11;15.37;;;10.00;;
12367;SDS011;6248;49.812;6.620;2023-01-19T04:16:39;14.77;;;10.17;;
12367;SDS011;6248;49.812;6.620;2023-01-19T04:19:06;11.83;;;9.50;;
12367;SDS011;6248;49.812;6.620;2023-01-19T04:21:34;11.17;;;8.90;;
12367;SDS011;6248;49.812;6.620;2023-01-19T04:24:01;13.27;;;9.77;;
12367;SDS011;6248;49.812;6.620;2023-01-19T04:26:29;11.63;;;9.63;;
12367;SDS011;6248;49.812;6.620;2023-01-19T04:28:56;11.60;;;8.77;;
12367;SDS011;6248;49.812;6.620;2023-01-19T04:31:23;11.97;;;8.83;;
12367;SDS011;6248;49.812;6.620;2023-01-19T04:33:51;11.10;;;8.20;;
12367;SDS011;6248;49.812;6.620;2023-01-19T04:36:18;13.40;;;9.43;;
12367;SDS011;6248;49.812;6.620;2023-01-19T04:38:46;9.57;;;8.30;;
12367;SDS011;6248;49.812;6.620;2023-01-19T04:41:14;10.77;;;8.93;;
12367;SDS011;6248;49.812;6.620;2023-01-19T04:43:41;11.43;;;8.80;;
12367;SDS011;6248;49.812;6.620;2023-01-19T04:46:08;14.20;;;9.33;;
12367;SDS011;6248;49.812;6.620;2023-01-19T04:48:35;10.33;;;8.90;;
12367;SDS011;6248;49.812;6.620;2023-01-19T04:51:02;12.50;;;9.23;;
12367;SDS011;6248;49.812;6.620;2023-01-19T04:53:30;9.67;;;8.30;;
12367;SDS011;6248;49.812;6.620;2023-01-19T04:55:58;13.50;;;9.23;;
12367;SDS011;6248;49.812;6.620;2023-01-19T04:58:25;11.70;;;9.63;;
12367;SDS011;6248;49.812;6.620;2023-01-19T05:00:52;13.80;;;9.53;;
12367;SDS011;6248;49.812;6.620;2023-01-19T05:03:19;11.47;;;8.77;;
12367;SDS011;6248;49.812;6.620;2023-01-19T05:05:47;12.73;;;9.50;;
12367;SDS011;6248;49.812;6.620;2023-01-19T05:08:14;11.77;;;9.70;;
12367;SDS011;6248;49.812;6.620;2023-01-19T05:10:41;13.43;;;9.70;;
12367;SDS011;6248;49.812;6.620;2023-01-19T05:13:10;14.93;;;9.57;;
12367;SDS011;6248;49.812;6.620;2023-01-19T05:15:38;13.97;;;9.87;;
12367;SDS011;6248;49.812;6.620;2023-01-19T05:18:05;12.07;;;9.70;;
12367;SDS011;6248;49.812;6.620;2023-01-19T05:20:32;10.73;;;8.67;;
12367;SDS011;6248;49.812;6.620;2023-01-19T05:22:59;12.77;;;9.00;;
12367;SDS011;6248;49.812;6.620;2023-01-19T05:25:26;11.27;;;9.53;;
12367;SDS011;6248;49.812;6.620;2023-01-19T05:27:53;11.17;;;8.23;;
12367;SDS011;6248;49.812;6.620;2023-01-19T05:30:22;11.40;;;8.13;;
12367;SDS011;6248;49.812;6.620;2023-01-19T05:32:49;9.90;;;8.90;;
12367;SDS011;6248;49.812;6.620;2023-01-19T05:35:16;11.43;;;9.00;;
12367;SDS011;6248;49.812;6.620;2023-01-19T05:37:43;10.40;;;8.43;;
12367;SDS011;6248;49.812;6.620;2023-01-19T05:40:12;13.10;;;9.03;;
12367;SDS011;6248;49.812;6.620;2023-01-19T05:42:40;9.43;;;7.93;;
12367;SDS011;6248;49.812;6.620;2023-01-19T05:45:07;10.60;;;8.30;;
12367;SDS011;6248;49.812;6.620;2023-01-19T05:47:37;10.63;;;8.53;;
12367;SDS011;6248;49.812;6.620;2023-01-19T05:50:04;10.80;;;9.17;;
12367;SDS011;6248;49.812;6.620;2023-01-19T05:52:32;13.50;;;9.00;;
12367;SDS011;6248;49.812;6.620;2023-01-19T05:54:59;10.50;;;8.07;;
12367;SDS011;6248;49.812;6.620;2023-01-19T05:57:26;10.77;;;7.77;;
12367;SDS011;6248;49.812;6.620;2023-01-19T05:59:53;8.93;;;7.73;;
12367;SDS011;6248;49.812;6.620;2023-01-19T06:02:20;9.93;;;7.97;;
12367;SDS011;6248;49.812;6.620;2023-01-19T06:04:54;9.03;;;7.80;;
12367;SDS011;6248;49.812;6.620;2023-01-19T06:07:21;11.00;;;7.70;;
12367;SDS011;6248;49.812;6.620;2023-01-19T06:09:48;11.53;;;7.87;;
12367;SDS011;6248;49.812;6.620;2023-01-19T06:12:16;11.97;;;7.97;;
12367;SDS011;6248;49.812;6.620;2023-01-19T06:14:43;8.47;;;6.97;;
12367;SDS011;6248;49.812;6.620;2023-01-19T06:17:10;11.37;;;7.90;;
12367;SDS011;6248;49.812;6.620;2023-01-19T06:19:37;8.67;;;7.27;;
12367;SDS011;6248;49.812;6.620;2023-01-19T06:22:07;7.67;;;6.83;;
12367;SDS011;6248;49.812;6.620;2023-01-19T06:24:34;9.37;;;6.83;;
12367;SDS011;6248;49.812;6.620;2023-01-19T06:27:01;8.53;;;7.30;;
12367;SDS011;6248;49.812;6.620;2023-01-19T06:29:30;7.87;;;6.83;;
12367;SDS011;6248;49.812;6.620;2023-01-19T06:31:57;9.47;;;6.60;;
12367;SDS011;6248;49.812;6.620;2023-01-19T06:34:24;7.87;;;6.93;;
12367;SDS011;6248;49.812;6.620;2023-01-19T06:36:52;8.70;;;6.50;;
12367;SDS011;6248;49.812;6.620;2023-01-19T06:39:21;8.60;;;6.43;;
12367;SDS011;6248;49.812;6.620;2023-01-19T06:41:48;9.43;;;7.23;;
12367;SDS011;6248;49.812;6.620;2023-01-19T06:44:15;10.80;;;7.53;;
12367;SDS011;6248;49.812;6.620;2023-01-19T06:46:42;10.67;;;7.40;;
12367;SDS011;6248;49.812;6.620;2023-01-19T06:49:10;9.77;;;7.77;;
12367;SDS011;6248;49.812;6.620;2023-01-19T06:51:37;9.53;;;7.77;;
12367;SDS011;6248;49.812;6.620;2023-01-19T06:54:08;10.03;;;8.57;;
12367;SDS011;6248;49.812;6.620;2023-01-19T06:56:37;9.23;;;7.77;;
12367;SDS011;6248;49.812;6.620;2023-01-19T06:59:04;9.80;;;8.63;;
12367;SDS011;6248;49.812;6.620;2023-01-19T07:01:31;9.60;;;7.60;;
12367;SDS011;6248;49.812;6.620;2023-01-19T07:03:58;10.77;;;8.73;;
12367;SDS011;6248;49.812;6.620;2023-01-19T07:06:25;10.13;;;7.93;;
12367;SDS011;6248;49.812;6.620;2023-01-19T07:08:53;12.03;;;8.77;;
12367;SDS011;6248;49.812;6.620;2023-01-19T07:11:20;11.17;;;8.67;;
12367;SDS011;6248;49.812;6.620;2023-01-19T07:13:52;12.33;;;8.40;;
12367;SDS011;6248;49.812;6.620;2023-01-19T07:16:19;10.50;;;8.23;;
12367;SDS011;6248;49.812;6.620;2023-01-19T07:18:47;9.40;;;8.00;;
12367;SDS011;6248;49.812;6.620;2023-01-19T07:21:14;10.57;;;8.07;;
12367;SDS011;6248;49.812;6.620;2023-01-19T07:23:46;11.10;;;8.17;;
12367;SDS011;6248;49.812;6.620;2023-01-19T07:26:13;9.43;;;8.10;;
12367;SDS011;6248;49.812;6.620;2023-01-19T07:28:42;10.00;;;7.03;;
12367;SDS011;6248;49.812;6.620;2023-01-19T07:31:11;9.43;;;7.63;;
12367;SDS011;6248;49.812;6.620;2023-01-19T07:33:38;9.40;;;7.40;;
12367;SDS011;6248;49.812;6.620;2023-01-19T07:36:06;8.80;;;7.10;;
12367;SDS011;6248;49.812;6.620;2023-01-19T07:38:33;9.43;;;7.80;;
12367;SDS011;6248;49.812;6.620;2023-01-19T07:41:01;10.87;;;8.23;;
12367;SDS011;6248;49.812;6.620;2023-01-19T07:43:28;10.33;;;8.53;;
12367;SDS011;6248;49.812;6.620;2023-01-19T07:45:56;11.07;;;8.43;;
12367;SDS011;6248;49.812;6.620;2023-01-19T07:48:26;10.30;;;8.70;;
12367;SDS011;6248;49.812;6.620;2023-01-19T07:50:58;11.50;;;8.40;;
12367;SDS011;6248;49.812;6.620;2023-01-19T07:53:25;11.33;;;8.37;;
12367;SDS011;6248;49.812;6.620;2023-01-19T07:55:53;13.60;;;10.07;;
12367;SDS011;6248;49.812;6.620;2023-01-19T07:58:21;11.53;;;9.07;;
12367;SDS011;6248;49.812;6.620;2023-01-19T08:00:48;11.90;;;8.30;;
12367;SDS011;6248;49.812;6.620;2023-01-19T08:03:15;10.70;;;8.47;;
12367;SDS011;6248;49.812;6.620;2023-01-19T08:05:44;12.10;;;8.90;;
12367;SDS011;6248;49.812;6.620;2023-01-19T08:08:15;12.37;;;7.90;;
12367;SDS011;6248;49.812;6.620;2023-01-19T08:10:43;12.33;;;9.10;;
12367;SDS011;6248;49.812;6.620;2023-01-19T08:13:10;10.07;;;7.80;;
12367;SDS011;6248;49.812;6.620;2023-01-19T08:15:37;11.37;;;8.80;;
12367;SDS011;6248;49.812;6.620;2023-01-19T08:18:04;11.63;;;9.27;;
12367;SDS011;6248;49.812;6.620;2023-01-19T08:20:33;13.80;;;9.63;;
12367;SDS011;6248;49.812;6.620;2023-01-19T08:23:02;13.23;;;9.87;;
12367;SDS011;6248;49.812;6.620;2023-01-19T08:25:33;13.33;;;9.97;;
12367;SDS011;6248;49.812;6.620;2023-01-19T08:28:01;13.70;;;10.20;;
12367;SDS011;6248;49.812;6.620;2023-01-19T08:30:28;12.00;;;9.17;;
12367;SDS011;6248;49.812;6.620;2023-01-19T08:32:56;13.93;;;9.50;;
12367;SDS011;6248;49.812;6.620;2023-01-19T08:35:28;12.20;;;8.77;;
12367;SDS011;6248;49.812;6.620;2023-01-19T08:37:55;11.97;;;9.40;;
12367;SDS011;6248;49.812;6.620;2023-01-19T08:40:26;14.23;;;9.63;;
12367;SDS011;6248;49.812;6.620;2023-01-19T08:42:56;11.33;;;9.37;;
12367;SDS011;6248;49.812;6.620;2023-01-19T08:45:27;12.80;;;9.30;;
12367;SDS011;6248;49.812;6.620;2023-01-19T08:47:55;14.67;;;9.57;;
12367;SDS011;6248;49.812;6.620;2023-01-19T08:50:23;11.57;;;9.47;;
12367;SDS011;6248;49.812;6.620;2023-01-19T08:52:50;12.17;;;9.43;;
12367;SDS011;6248;49.812;6.620;2023-01-19T08:55:17;12.47;;;9.50;;
12367;SDS011;6248;49.812;6.620;2023-01-19T08:57:46;14.67;;;9.47;;
12367;SDS011;6248;49.812;6.620;2023-01-19T09:00:17;13.87;;;9.70;;
12367;SDS011;6248;49.812;6.620;2023-01-19T09:02:44;11.47;;;8.67;;
12367;SDS011;6248;49.812;6.620;2023-01-19T09:05:11;12.47;;;9.87;;
12367;SDS011;6248;49.812;6.620;2023-01-19T09:07:38;10.73;;;8.97;;
12367;SDS011;6248;49.812;6.620;2023-01-19T09:10:06;10.57;;;9.03;;
12367;SDS011;6248;49.812;6.620;2023-01-19T09:12:34;10.23;;;8.83;;
12367;SDS011;6248;49.812;6.620;2023-01-19T09:15:03;9.70;;;8.60;;
12367;SDS011;6248;49.812;6.620;2023-01-19T09:17:30;11.33;;;8.03;;
12367;SDS011;6248;49.812;6.620;2023-01-19T09:19:58;10.33;;;9.10;;
12367;SDS011;6248;49.812;6.620;2023-01-19T09:22:25;10.70;;;8.80;;
12367;SDS011;6248;49.812;6.620;2023-01-19T09:24:53;10.80;;;8.37;;
12367;SDS011;6248;49.812;6.620;2023-01-19T09:27:20;10.37;;;7.90;;
12367;SDS011;6248;49.812;6.620;2023-01-19T09:29:48;11.67;;;8.30;;
12367;SDS011;6248;49.812;6.620;2023-01-19T09:32:20;10.40;;;8.20;;
12367;SDS011;6248;49.812;6.620;2023-01-19T09:34:47;8.03;;;7.23;;
12367;SDS011;6248;49.812;6.620;2023-01-19T09:37:15;8.20;;;7.40;;
12367;SDS011;6248;49.812;6.620;2023-01-19T09:39:42;9.17;;;7.43;;
12367;SDS011;6248;49.812;6.620;2023-01-19T09:42:12;9.13;;;7.53;;
12367;SDS011;6248;49.812;6.620;2023-01-19T09:44:44;9.87;;;7.40;;
12367;SDS011;6248;49.812;6.620;2023-01-19T09:47:12;10.93;;;8.00;;
12367;SDS011;6248;49.812;6.620;2023-01-19T09:49:42;10.73;;;7.70;;
12367;SDS011;6248;49.812;6.620;2023-01-19T09:52:10;10.77;;;8.13;;
12367;SDS011;6248;49.812;6.620;2023-01-19T09:54:39;9.97;;;7.90;;
12367;SDS011;6248;49.812;6.620;2023-01-19T09:57:08;8.10;;;7.10;;
12367;SDS011;6248;49.812;6.620;2023-01-19T09:59:36;9.40;;;7.97;;
12367;SDS011;6248;49.812;6.620;2023-01-19T10:02:05;10.67;;;8.37;;
12367;SDS011;6248;49.812;6.620;2023-01-19T10:04:33;10.07;;;7.80;;
12367;SDS011;6248;49.812;6.620;2023-01-19T10:07:05;10.77;;;7.47;;
12367;SDS011;6248;49.812;6.620;2023-01-19T10:09:36;12.57;;;8.20;;
12367;SDS011;6248;49.812;6.620;2023-01-19T10:12:07;9.13;;;8.13;;
12367;SDS011;6248;49.812;6.620;2023-01-19T10:14:39;12.67;;;7.80;;
12367;SDS011;6248;49.812;6.620;2023-01-19T10:17:11;13.17;;;8.20;;
12367;SDS011;6248;49.812;6.620;2023-01-19T10:19:44;8.87;;;7.80;;
12367;SDS011;6248;49.812;6.620;2023-01-19T10:22:18;9.10;;;8.20;;
12367;SDS011;6248;49.812;6.620;2023-01-19T10:24:46;9.97;;;7.80;;
12367;SDS011;6248;49.812;6.620;2023-01-19T10:27:15;10.63;;;7.50;;
12367;SDS011;6248;49.812;6.620;2023-01-19T10:29:43;9.57;;;8.20;;
12367;SDS011;6248;49.812;6.620;2023-01-19T10:32:12;12.37;;;7.87;;
12367;SDS011;6248;49.812;6.620;2023-01-19T10:34:41;10.07;;;7.87;;
12367;SDS011;6248;49.812;6.620;2023-01-19T10:37:14;8.60;;;7.57;;
12367;SDS011;6248;49.812;6.620;2023-01-19T10:39:45;10.40;;;7.60;;
12367;SDS011;6248;49.812;6.620;2023-01-19T10:42:14;8.70;;;7.80;;
12367;SDS011;6248;49.812;6.620;2023-01-19T10:44:42;8.47;;;7.57;;
12367;SDS011;6248;49.812;6.620;2023-01-19T10:47:12;9.63;;;7.73;;
12367;SDS011;6248;49.812;6.620;2023-01-19T10:49:41;8.60;;;7.37;;
12367;SDS011;6248;49.812;6.620;2023-01-19T10:52:16;9.63;;;7.23;;
12367;SDS011;6248;49.812;6.620;2023-01-19T10:54:46;8.73;;;6.97;;
12367;SDS011;6248;49.812;6.620;2023-01-19T10:57:19;7.57;;;6.87;;
12367;SDS011;6248;49.812;6.620;2023-01-19T10:59:48;8.97;;;6.63;;
12367;SDS011;6248;49.812;6.620;2023-01-19T11:02:17;9.10;;;7.10;;
12367;SDS011;6248;49.812;6.620;2023-01-19T11:04:44;8.10;;;6.97;;
12367;SDS011;6248;49.812;6.620;2023-01-19T11:07:14;8.93;;;7.53;;
12367;SDS011;6248;49.812;6.620;2023-01-19T11:09:43;11.33;;;7.13;;
12367;SDS011;6248;49.812;6.620;2023-01-19T11:12:19;9.50;;;7.83;;
12367;SDS011;6248;49.812;6.620;2023-01-19T11:14:46;11.10;;;8.23;;
12367;SDS011;6248;49.812;6.620;2023-01-19T11:17:18;10.27;;;7.70;;
12367;SDS011;6248;49.812;6.620;2023-01-19T11:19:56;8.17;;;7.33;;
12367;SDS011;6248;49.812;6.620;2023-01-19T11:22:25;9.80;;;7.23;;
12367;SDS011;6248;49.812;6.620;2023-01-19T11:24:57;9.43;;;7.57;;
12367;SDS011;6248;49.812;6.620;2023-01-19T11:27:26;8.17;;;7.03;;
12367;SDS011;6248;49.812;6.620;2023-01-19T11:29:59;11.47;;;6.70;;
12367;SDS011;6248;49.812;6.620;2023-01-19T11:32:29;9.77;;;7.00;;
12367;SDS011;6248;49.812;6.620;2023-01-19T11:34:59;8.73;;;6.53;;
12367;SDS011;6248;49.812;6.620;2023-01-19T11:37:28;9.73;;;6.80;;
12367;SDS011;6248;49.812;6.620;2023-01-19T11:39:59;7.57;;;6.50;;
12367;SDS011;6248;49.812;6.620;2023-01-19T11:42:31;8.97;;;6.60;;
12367;SDS011;6248;49.812;6.620;2023-01-19T11:45:02;7.13;;;6.43;;
12367;SDS011;6248;49.812;6.620;2023-01-19T11:47:32;8.83;;;7.60;;
12367;SDS011;6248;49.812;6.620;2023-01-19T11:50:03;8.67;;;7.27;;
12367;SDS011;6248;49.812;6.620;2023-01-19T11:52:32;9.30;;;6.87;;
12367;SDS011;6248;49.812;6.620;2023-01-19T11:55:02;8.63;;;7.10;;
12367;SDS011;6248;49.812;6.620;2023-01-19T11:57:32;10.83;;;7.00;;
12367;SDS011;6248;49.812;6.620;2023-01-19T12:05:05;12.83;;;6.90;;
12367;SDS011;6248;49.812;6.620;2023-01-19T12:07:37;8.27;;;6.83;;
12367;SDS011;6248;49.812;6.620;2023-01-19T12:10:06;7.57;;;6.60;;
12367;SDS011;6248;49.812;6.620;2023-01-19T12:12:42;9.73;;;7.07;;
12367;SDS011;6248;49.812;6.620;2023-01-19T12:15:13;9.30;;;7.07;;
12367;SDS011;6248;49.812;6.620;2023-01-19T12:17:47;7.07;;;6.37;;
12367;SDS011;6248;49.812;6.620;2023-01-19T12:20:18;9.07;;;6.97;;
12367;SDS011;6248;49.812;6.620;2023-01-19T12:22:54;9.77;;;7.37;;
12367;SDS011;6248;49.812;6.620;2023-01-19T12:25:24;8.83;;;7.30;;
12367;SDS011;6248;49.812;6.620;2023-01-19T12:27:53;10.07;;;7.23;;
12367;SDS011;6248;49.812;6.620;2023-01-19T12:30:21;8.40;;;6.50;;
12367;SDS011;6248;49.812;6.620;2023-01-19T12:32:49;10.00;;;6.83;;
12367;SDS011;6248;49.812;6.620;2023-01-19T12:38:12;9.80;;;6.50;;
12367;SDS011;6248;49.812;6.620;2023-01-19T12:40:48;8.77;;;6.60;;
12367;SDS011;6248;49.812;6.620;2023-01-19T12:43:17;7.90;;;6.20;;
12367;SDS011;6248;49.812;6.620;2023-01-19T12:45:44;6.70;;;6.00;;
12367;SDS011;6248;49.812;6.620;2023-01-19T12:48:22;7.90;;;6.40;;
12367;SDS011;6248;49.812;6.620;2023-01-19T12:50:50;6.10;;;5.50;;
12367;SDS011;6248;49.812;6.620;2023-01-19T12:53:18;8.37;;;6.13;;
12367;SDS011;6248;49.812;6.620;2023-01-19T12:55:51;7.33;;;5.80;;
12367;SDS011;6248;49.812;6.620;2023-01-19T12:58:25;9.20;;;7.03;;
12367;SDS011;6248;49.812;6.620;2023-01-19T13:03:42;7.23;;;5.53;;
12367;SDS011;6248;49.812;6.620;2023-01-19T13:06:09;7.50;;;5.10;;
12367;SDS011;6248;49.812;6.620;2023-01-19T13:08:55;6.77;;;5.70;;
12367;SDS011;6248;49.812;6.620;2023-01-19T13:11:23;6.40;;;5.80;;
12367;SDS011;6248;49.812;6.620;2023-01-19T13:16:56;6.87;;;5.20;;
12367;SDS011;6248;49.812;6.620;2023-01-19T13:19:31;6.37;;;5.43;;
12367;SDS011;6248;49.812;6.620;2023-01-19T13:22:08;8.33;;;5.77;;
12367;SDS011;6248;49.812;6.620;2023-01-19T13:25:05;7.93;;;5.50;;
12367;SDS011;6248;49.812;6.620;2023-01-19T13:27:33;7.23;;;5.37;;
12367;SDS011;6248;49.812;6.620;2023-01-19T13:30:01;8.73;;;5.73;;
12367;SDS011;6248;49.812;6.620;2023-01-19T13:32:29;5.93;;;5.30;;
12367;SDS011;6248;49.812;6.620;2023-01-19T13:34:57;8.40;;;6.20;;
12367;SDS011;6248;49.812;6.620;2023-01-19T13:37:28;7.47;;;5.37;;
12367;SDS011;6248;49.812;6.620;2023-01-19T13:39:57;5.70;;;5.10;;
12367;SDS011;6248;49.812;6.620;2023-01-19T13:42:27;7.27;;;5.50;;
12367;SDS011;6248;49.812;6.620;2023-01-19T13:44:56;6.77;;;5.90;;
12367;SDS011;6248;49.812;6.620;2023-01-19T13:47:25;6.33;;;5.37;;
12367;SDS011;6248;49.812;6.620;2023-01-19T13:49:57;6.40;;;5.40;;
12367;SDS011;6248;49.812;6.620;2023-01-19T13:52:24;7.00;;;5.80;;
12367;SDS011;6248;49.812;6.620;2023-01-19T13:54:52;7.37;;;5.90;;
12367;SDS011;6248;49.812;6.620;2023-01-19T13:57:23;8.43;;;5.80;;
12367;SDS011;6248;49.812;6.620;2023-01-19T14:00:02;6.77;;;5.50;;
12367;SDS011;6248;49.812;6.620;2023-01-19T14:02:31;12.87;;;8.33;;
12367;SDS011;6248;49.812;6.620;2023-01-19T14:05:12;8.97;;;6.53;;
12367;SDS011;6248;49.812;6.620;2023-01-19T14:07:39;7.83;;;6.17;;
12367;SDS011;6248;49.812;6.620;2023-01-19T14:10:11;7.40;;;6.03;;
12367;SDS011;6248;49.812;6.620;2023-01-19T14:12:40;9.23;;;6.50;;
12367;SDS011;6248;49.812;6.620;2023-01-19T14:15:08;6.37;;;5.77;;
12367;SDS011;6248;49.812;6.620;2023-01-19T14:17:38;7.83;;;6.23;;
12367;SDS011;6248;49.812;6.620;2023-01-19T14:20:06;7.20;;;5.67;;
12367;SDS011;6248;49.812;6.620;2023-01-19T14:22:54;6.63;;;5.90;;
12367;SDS011;6248;49.812;6.620;2023-01-19T14:25:25;7.63;;;6.13;;
12367;SDS011;6248;49.812;6.620;2023-01-19T14:30:34;8.30;;;6.70;;
12367;SDS011;6248;49.812;6.620;2023-01-19T14:33:02;6.57;;;5.90;;
12367;SDS011;6248;49.812;6.620;2023-01-19T14:35:29;9.03;;;6.20;;
12367;SDS011;6248;49.812;6.620;2023-01-19T14:38:00;8.80;;;5.83;;
12367;SDS011;6248;49.812;6.620;2023-01-19T14:40:28;8.33;;;6.37;;
12367;SDS011;6248;49.812;6.620;2023-01-19T14:42:56;8.00;;;6.37;;
12367;SDS011;6248;49.812;6.620;2023-01-19T14:45:27;7.13;;;5.70;;
12367;SDS011;6248;49.812;6.620;2023-01-19T14:47:57;7.63;;;6.13;;
12367;SDS011;6248;49.812;6.620;2023-01-19T14:50:25;8.13;;;6.07;;
12367;SDS011;6248;49.812;6.620;2023-01-19T14:52:53;7.13;;;6.00;;
12367;SDS011;6248;49.812;6.620;2023-01-19T14:55:24;8.10;;;6.10;;
12367;SDS011;6248;49.812;6.620;2023-01-19T14:57:54;7.47;;;5.83;;
12367;SDS011;6248;49.812;6.620;2023-01-19T15:00:22;7.67;;;6.07;;
12367;SDS011;6248;49.812;6.620;2023-01-19T15:02:49;9.37;;;6.23;;
12367;SDS011;6248;49.812;6.620;2023-01-19T15:05:16;7.13;;;5.77;;
12367;SDS011;6248;49.812;6.620;2023-01-19T15:07:43;8.27;;;6.30;;
12367;SDS011;6248;49.812;6.620;2023-01-19T15:10:13;9.80;;;6.20;;
12367;SDS011;6248;49.812;6.620;2023-01-19T15:12:43;9.23;;;5.90;;
12367;SDS011;6248;49.812;6.620;2023-01-19T15:15:16;9.13;;;6.20;;
12367;SDS011;6248;49.812;6.620;2023-01-19T15:17:46;8.63;;;5.87;;
12367;SDS011;6248;49.812;6.620;2023-01-19T15:20:14;8.63;;;5.57;;